createdAt,value
2024-05-09T00:00:39.130Z,11.87
2024-05-09T00:03:30.814Z,11.63
2024-05-09T00:06:20.337Z,11.97
2024-05-09T00:09:10.410Z,11.50
2024-05-09T00:12:00.926Z,11.50
2024-05-09T00:14:51.300Z,11.63
2024-05-09T00:17:44.017Z,12.37
2024-05-09T00:20:38.951Z,11.80
2024-05-09T00:23:30.708Z,11.47
2024-05-09T00:26:20.632Z,11.20
2024-05-09T00:29:10.720Z,11.40
2024-05-09T00:32:00.964Z,12.07
2024-05-09T00:34:53.568Z,11.80
2024-05-09T00:37:43.923Z,11.30
2024-05-09T00:40:41.718Z,11.87
2024-05-09T00:43:33.527Z,11.70
2024-05-09T00:46:24.810Z,11.30
2024-05-09T00:49:16.170Z,11.80
2024-05-09T00:52:10.301Z,11.03
2024-05-09T00:55:00.836Z,11.27
2024-05-09T00:57:52.121Z,11.70
2024-05-09T01:00:42.212Z,11.63
2024-05-09T01:03:32.772Z,11.50
2024-05-09T01:06:24.025Z,11.47
2024-05-09T01:09:16.732Z,11.10
2024-05-09T01:12:07.042Z,11.77
2024-05-09T01:14:56.907Z,11.33
2024-05-09T01:17:47.132Z,11.90
2024-05-09T01:20:41.941Z,11.67
2024-05-09T01:23:37.130Z,11.73
2024-05-09T01:26:27.173Z,11.63
2024-05-09T01:29:17.073Z,11.50
2024-05-09T01:32:07.566Z,11.20
2024-05-09T01:34:57.502Z,11.60
2024-05-09T01:37:47.632Z,11.20
2024-05-09T01:40:40.527Z,11.20
2024-05-09T01:43:30.820Z,11.90
2024-05-09T01:46:20.768Z,12.20
2024-05-09T01:49:10.833Z,12.30
2024-05-09T01:52:00.846Z,12.47
2024-05-09T01:54:51.165Z,12.00
2024-05-09T01:57:43.629Z,12.20
2024-05-09T02:00:39.668Z,12.13
2024-05-09T02:03:31.797Z,11.80
2024-05-09T02:06:21.570Z,12.53
2024-05-09T02:09:11.790Z,11.50
2024-05-09T02:12:01.886Z,12.40
2024-05-09T02:14:55.336Z,12.80
2024-05-09T02:17:45.820Z,11.70
2024-05-09T02:20:36.994Z,12.03
2024-05-09T02:23:27.330Z,11.80
2024-05-09T02:26:17.668Z,11.37
2024-05-09T02:29:07.817Z,12.23
2024-05-09T02:32:00.294Z,12.27
2024-05-09T02:34:50.229Z,11.93
2024-05-09T02:37:39.959Z,11.47
2024-05-09T02:40:35.598Z,11.60
2024-05-09T02:43:28.110Z,11.57
2024-05-09T02:46:15.223Z,12.07
2024-05-09T02:49:07.780Z,11.30
2024-05-09T02:51:55.177Z,11.80
2024-05-09T02:54:45.210Z,11.70
2024-05-09T02:57:34.938Z,11.60
2024-05-09T03:00:29.453Z,11.57
2024-05-09T03:03:27.142Z,11.80
2024-05-09T03:06:17.457Z,11.87
2024-05-09T03:09:09.646Z,11.63
2024-05-09T03:11:57.103Z,13.70
2024-05-09T03:14:47.399Z,11.80
2024-05-09T03:17:34.809Z,11.77
2024-05-09T03:20:32.405Z,14.20
2024-05-09T03:23:24.341Z,12.13
2024-05-09T03:26:15.916Z,11.90
2024-05-09T03:29:03.294Z,12.00
2024-05-09T03:31:53.617Z,12.10
2024-05-09T03:34:41.234Z,11.67
2024-05-09T03:37:30.924Z,12.07
2024-05-09T03:40:26.496Z,12.00
2024-05-09T03:43:19.966Z,13.33
2024-05-09T03:46:10.785Z,11.27
2024-05-09T03:48:58.605Z,11.60
2024-05-09T03:51:48.573Z,12.10
2024-05-09T03:54:36.218Z,11.30
2024-05-09T03:57:28.927Z,11.80
2024-05-09T04:00:22.528Z,11.63
2024-05-09T04:03:20.637Z,11.63
2024-05-09T04:06:08.278Z,11.30
2024-05-09T04:08:58.911Z,11.73
2024-05-09T04:11:46.324Z,14.13
2024-05-09T04:14:39.133Z,11.80
2024-05-09T04:17:26.467Z,11.40
2024-05-09T04:20:28.688Z,11.77
2024-05-09T04:23:23.693Z,13.20
2024-05-09T04:26:14.092Z,11.70
2024-05-09T04:29:01.581Z,11.50
2024-05-09T04:31:54.469Z,11.80
2024-05-09T04:34:42.219Z,11.80
2024-05-09T04:37:32.442Z,11.50
2024-05-09T04:40:28.107Z,11.53
2024-05-09T04:43:23.080Z,10.90
2024-05-09T04:46:10.210Z,11.90
2024-05-09T04:49:02.735Z,11.80
2024-05-09T04:51:50.252Z,11.30
2024-05-09T04:54:40.004Z,14.47
2024-05-09T04:57:27.331Z,11.63
2024-05-09T05:00:21.985Z,11.50
2024-05-09T05:03:19.289Z,13.60
2024-05-09T05:06:09.699Z,11.60
2024-05-09T05:09:00.657Z,11.43
2024-05-09T05:11:47.882Z,11.33
2024-05-09T05:14:37.628Z,11.63
2024-05-09T05:17:27.707Z,11.10
2024-05-09T05:20:24.050Z,11.10
2024-05-09T05:23:23.145Z,10.80
2024-05-09T05:26:10.718Z,11.07
2024-05-09T05:29:00.675Z,11.07
2024-05-09T05:31:48.352Z,10.93
2024-05-09T05:34:38.671Z,11.10
2024-05-09T05:37:28.447Z,11.07
2024-05-09T05:40:27.943Z,10.73
2024-05-09T05:43:22.509Z,10.80
2024-05-09T05:46:12.080Z,11.10
2024-05-09T05:48:59.206Z,11.40
2024-05-09T05:51:49.096Z,10.73
2024-05-09T05:54:36.328Z,11.13
2024-05-09T05:57:28.733Z,10.50
2024-05-09T06:00:25.960Z,10.73
2024-05-09T06:03:20.297Z,11.07
2024-05-09T06:06:07.563Z,11.20
2024-05-09T06:08:57.990Z,10.80
2024-05-09T06:11:45.463Z,11.07
2024-05-09T06:14:38.295Z,11.07
2024-05-09T06:17:25.761Z,11.30
2024-05-09T06:20:20.794Z,11.67
2024-05-09T06:23:17.889Z,11.20
2024-05-09T06:26:06.065Z,10.60
2024-05-09T06:28:56.136Z,10.73
2024-05-09T06:31:46.429Z,10.60
2024-05-09T06:34:36.532Z,10.87
2024-05-09T06:37:24.236Z,11.07
2024-05-09T06:40:21.123Z,11.50
2024-05-09T06:43:13.485Z,11.10
2024-05-09T06:46:03.308Z,10.50
2024-05-09T06:48:53.464Z,18.57
2024-05-09T06:51:44.139Z,10.30
2024-05-09T06:54:31.477Z,10.63
2024-05-09T06:57:21.365Z,10.50
2024-05-09T07:00:12.887Z,10.33
2024-05-09T07:03:12.774Z,9.60
2024-05-09T07:06:04.893Z,10.30
2024-05-09T07:08:55.279Z,10.10
2024-05-09T07:11:45.503Z,11.40
2024-05-09T07:14:34.474Z,10.30
2024-05-09T07:17:25.120Z,10.00
2024-05-09T07:20:22.973Z,9.93
2024-05-09T07:23:20.755Z,10.50
2024-05-09T07:26:08.154Z,10.30
2024-05-09T07:28:58.032Z,10.70
2024-05-09T07:31:46.156Z,10.47
2024-05-09T07:34:36.251Z,9.90
2024-05-09T07:37:23.584Z,9.97
2024-05-09T07:40:24.947Z,9.97
2024-05-09T07:43:19.768Z,10.70
2024-05-09T07:47:13.904Z,14.77
2024-05-09T07:55:02.732Z,10.30
2024-05-09T07:57:55.478Z,9.57
2024-05-09T08:00:42.859Z,10.23
2024-05-09T08:03:32.829Z,9.33
2024-05-09T08:06:20.255Z,9.37
2024-05-09T08:09:13.885Z,9.10
2024-05-09T08:12:09.256Z,9.13
2024-05-09T08:15:03.112Z,9.18
2024-05-09T08:17:50.576Z,9.85
2024-05-09T08:20:41.781Z,9.20
2024-05-09T08:23:29.003Z,9.10
2024-05-09T08:26:19.242Z,9.10
2024-05-09T08:29:06.776Z,8.98
2024-05-09T08:31:59.689Z,9.05
2024-05-09T08:34:47.501Z,9.10
2024-05-09T08:37:39.960Z,8.70
2024-05-09T08:40:35.426Z,8.88
2024-05-09T08:43:27.244Z,8.85
2024-05-09T08:46:18.570Z,9.38
2024-05-09T08:49:09.183Z,8.90
2024-05-09T08:51:59.560Z,8.80
2024-05-09T08:54:46.847Z,8.77
2024-05-09T08:57:39.250Z,9.18
2024-05-09T09:00:35.776Z,9.20
2024-05-09T09:03:31.806Z,8.80
2024-05-09T09:06:22.888Z,8.98
2024-05-09T09:09:14.755Z,10.85
2024-05-09T09:12:02.144Z,8.90
2024-05-09T09:14:52.499Z,8.90
2024-05-09T09:17:39.850Z,9.10
2024-05-09T09:20:36.412Z,9.33
2024-05-09T09:23:30.857Z,9.37
2024-05-09T09:26:19.267Z,9.20
2024-05-09T09:29:09.395Z,9.30
2024-05-09T09:32:03.873Z,9.50
2024-05-09T09:34:51.446Z,10.10
2024-05-09T09:37:41.850Z,9.20
2024-05-09T09:40:39.100Z,9.27
2024-05-09T09:43:34.955Z,8.32
2024-05-09T09:46:23.148Z,8.20
2024-05-09T09:49:13.703Z,8.60
2024-05-09T09:52:01.815Z,8.38
2024-05-09T09:54:53.380Z,8.77
2024-05-09T09:57:45.262Z,9.77
2024-05-09T10:00:35.978Z,8.52
2024-05-09T10:03:25.999Z,8.40
2024-05-09T10:06:14.544Z,8.07
2024-05-09T10:09:05.164Z,8.57
2024-05-09T10:11:59.686Z,8.75
2024-05-09T10:14:57.430Z,8.48
2024-05-09T10:17:51.173Z,9.07
2024-05-09T10:20:45.777Z,8.70
2024-05-09T10:23:34.525Z,8.68
2024-05-09T10:26:35.349Z,9.02
2024-05-09T10:29:26.311Z,9.25
2024-05-09T10:32:20.684Z,8.90
2024-05-09T10:35:09.350Z,8.93
2024-05-09T10:37:59.539Z,8.80
2024-05-09T10:40:47.312Z,8.80
2024-05-09T10:43:37.440Z,9.20
2024-05-09T10:46:25.497Z,8.95
2024-05-09T10:49:19.060Z,9.48
2024-05-09T10:52:11.164Z,9.13
2024-05-09T10:54:59.931Z,8.65
2024-05-09T10:57:50.809Z,8.88
2024-05-09T11:00:41.025Z,9.00
2024-05-09T11:03:29.499Z,10.77
2024-05-09T11:06:22.377Z,11.43
2024-05-09T11:09:09.795Z,8.70
2024-05-09T11:11:59.765Z,8.73
2024-05-09T11:14:54.298Z,9.10
2024-05-09T11:17:44.135Z,8.93
2024-05-09T11:20:35.880Z,9.70
2024-05-09T11:23:30.921Z,9.23
2024-05-09T11:26:21.448Z,9.10
2024-05-09T11:29:11.167Z,10.10
2024-05-09T11:31:58.582Z,9.50
2024-05-09T11:34:48.237Z,9.30
2024-05-09T11:37:37.216Z,10.00
2024-05-09T11:40:34.219Z,10.03
2024-05-09T11:43:22.350Z,10.47
2024-05-09T11:46:12.614Z,9.90
2024-05-09T11:49:00.183Z,10.60
2024-05-09T11:51:50.566Z,10.60
2024-05-09T11:54:38.060Z,10.60
2024-05-09T11:57:30.824Z,10.50
2024-05-09T12:00:25.304Z,11.80
2024-05-09T12:03:23.462Z,10.73
2024-05-09T12:06:10.918Z,10.20
2024-05-09T12:09:00.563Z,10.40
2024-05-09T12:11:47.813Z,10.40
2024-05-09T12:14:40.197Z,10.30
2024-05-09T12:17:27.650Z,10.40
2024-05-09T12:20:25.797Z,10.63
2024-05-09T12:23:22.659Z,11.77
2024-05-09T12:26:10.800Z,10.47
2024-05-09T12:29:00.716Z,12.07
2024-05-09T12:31:50.822Z,10.27
2024-05-09T12:34:41.695Z,10.60
2024-05-09T12:37:29.140Z,11.93
2024-05-09T12:40:26.779Z,10.33
2024-05-09T12:43:24.613Z,10.60
2024-05-09T12:46:12.171Z,10.43
2024-05-09T12:49:05.066Z,14.00
2024-05-09T12:51:52.719Z,11.80
2024-05-09T12:54:42.822Z,10.87
2024-05-09T12:57:30.426Z,10.83
2024-05-09T13:00:27.436Z,10.90
2024-05-09T13:03:19.294Z,10.43
2024-05-09T13:06:12.145Z,10.60
2024-05-09T13:08:59.417Z,10.57
2024-05-09T13:11:49.381Z,10.80
2024-05-09T13:14:36.996Z,10.90
2024-05-09T13:17:26.949Z,10.40
2024-05-09T13:20:22.942Z,10.73
2024-05-09T13:23:22.232Z,10.50
2024-05-09T13:26:09.562Z,10.80
2024-05-09T13:28:59.685Z,10.50
2024-05-09T13:31:47.044Z,10.73
2024-05-09T13:34:36.768Z,11.97
2024-05-09T13:37:24.186Z,10.77
2024-05-09T13:40:26.595Z,10.70
2024-05-09T13:43:18.025Z,11.30
2024-05-09T13:46:08.569Z,10.60
2024-05-09T13:48:56.066Z,10.50
2024-05-09T13:51:46.232Z,10.70
2024-05-09T13:54:33.946Z,10.70
2024-05-09T13:57:26.668Z,10.70
2024-05-09T14:00:27.193Z,10.53
2024-05-09T14:03:27.009Z,10.60
2024-05-09T14:06:17.131Z,12.00
2024-05-09T14:09:04.888Z,10.50
2024-05-09T14:11:55.140Z,10.83
2024-05-09T14:14:45.156Z,10.63
2024-05-09T14:17:35.422Z,10.67
2024-05-09T14:20:30.717Z,10.57
2024-05-09T14:23:22.052Z,10.67
2024-05-09T14:26:09.273Z,10.57
2024-05-09T14:28:59.170Z,10.50
2024-05-09T14:31:49.390Z,10.47
2024-05-09T14:34:39.681Z,10.20
2024-05-09T14:37:29.735Z,11.03
2024-05-09T14:40:30.605Z,10.23
2024-05-09T14:43:26.743Z,10.67
2024-05-09T14:46:16.819Z,10.30
2024-05-09T14:49:09.801Z,10.83
2024-05-09T14:52:00.563Z,10.37
2024-05-09T14:54:51.312Z,10.70
2024-05-09T14:57:43.870Z,10.40
2024-05-09T15:00:35.883Z,10.93
2024-05-09T15:03:27.292Z,10.57
2024-05-09T15:06:18.983Z,10.57
2024-05-09T15:09:10.136Z,10.37
2024-05-09T15:11:57.639Z,10.37
2024-05-09T15:14:47.730Z,10.50
2024-05-09T15:17:35.295Z,10.60
2024-05-09T15:20:33.222Z,10.40
2024-05-09T15:23:25.758Z,10.40
2024-05-09T15:26:15.960Z,10.50
2024-05-09T15:29:06.142Z,10.63
2024-05-09T15:31:53.501Z,10.03
2024-05-09T15:34:43.304Z,10.13
2024-05-09T15:37:30.770Z,10.43
2024-05-09T15:40:31.681Z,10.70
2024-05-09T15:43:28.011Z,10.47
2024-05-09T15:46:18.618Z,10.67
2024-05-09T15:49:05.903Z,11.17
2024-05-09T15:51:56.147Z,10.80
2024-05-09T15:54:43.612Z,10.30
2024-05-09T15:57:36.248Z,10.70
2024-05-09T16:00:36.091Z,10.67
2024-05-09T16:03:29.751Z,10.70
2024-05-09T16:06:17.253Z,13.30
2024-05-09T16:09:07.604Z,10.40
2024-05-09T16:11:55.083Z,11.50
2024-05-09T16:14:48.005Z,10.50
2024-05-09T16:17:35.403Z,10.63
2024-05-09T16:20:34.938Z,11.13
2024-05-09T16:23:27.104Z,11.27
2024-05-09T16:26:17.006Z,10.97
2024-05-09T16:29:08.582Z,10.73
2024-05-09T16:31:58.540Z,11.20
2024-05-09T16:34:48.480Z,11.00
2024-05-09T16:37:36.111Z,10.90
2024-05-09T16:40:34.692Z,10.93
2024-05-09T16:43:27.092Z,11.03
2024-05-09T16:46:17.543Z,10.43
2024-05-09T16:49:07.638Z,10.80
2024-05-09T16:51:57.705Z,10.80
2024-05-09T16:54:45.171Z,10.70
2024-05-09T16:57:35.057Z,10.93
2024-05-09T17:00:31.598Z,11.10
2024-05-09T17:03:29.823Z,14.80
2024-05-09T17:06:22.291Z,11.00
2024-05-09T17:09:11.971Z,10.83
2024-05-09T17:12:05.324Z,11.20
2024-05-09T17:14:55.256Z,10.70
2024-05-09T17:17:45.291Z,11.50
2024-05-09T17:20:37.227Z,11.23
2024-05-09T17:26:21.272Z,12.13
2024-05-09T17:29:11.754Z,11.57
2024-05-09T17:32:02.280Z,12.20
2024-05-09T17:34:49.846Z,11.40
2024-05-09T17:37:39.534Z,11.13
2024-05-09T17:40:34.766Z,10.35
2024-05-09T17:43:28.267Z,11.60
2024-05-09T17:46:15.869Z,10.87
2024-05-09T17:49:06.114Z,11.07
2024-05-09T17:51:53.558Z,10.87
2024-05-09T17:54:43.387Z,10.80
2024-05-09T17:57:33.515Z,10.60
2024-05-09T18:00:33.705Z,11.27
2024-05-09T18:03:26.382Z,11.63
2024-05-09T18:06:16.740Z,11.97
2024-05-09T18:09:03.951Z,11.37
2024-05-09T18:11:54.030Z,11.30
2024-05-09T18:14:44.027Z,11.57
2024-05-09T18:17:34.272Z,11.83
2024-05-09T18:20:32.588Z,14.80
2024-05-09T18:23:31.155Z,11.67
2024-05-09T18:26:18.953Z,11.77
2024-05-09T18:29:10.467Z,11.77
2024-05-09T18:32:03.255Z,11.73
2024-05-09T18:34:50.670Z,12.27
2024-05-09T18:37:40.839Z,11.47
2024-05-09T18:40:33.735Z,13.70
2024-05-09T18:43:31.600Z,12.20
2024-05-09T18:46:25.872Z,12.67
2024-05-09T18:49:19.001Z,12.10
2024-05-09T18:52:07.194Z,12.67
2024-05-09T18:54:57.019Z,11.87
2024-05-09T18:57:44.433Z,12.20
2024-05-09T19:00:37.618Z,12.83
2024-05-09T19:03:27.351Z,12.43
2024-05-09T19:06:24.474Z,13.00
2024-05-09T19:09:12.470Z,12.70
2024-05-09T19:12:06.335Z,12.33
2024-05-09T19:14:53.752Z,12.97
2024-05-09T19:17:43.794Z,13.50
2024-05-09T19:20:34.571Z,12.97
2024-05-09T19:23:29.177Z,15.03
2024-05-09T19:26:18.387Z,14.33
2024-05-09T19:29:08.525Z,13.80
2024-05-09T19:31:56.746Z,14.17
2024-05-09T19:34:46.677Z,13.90
2024-05-09T19:37:34.318Z,13.57
2024-05-09T19:40:31.492Z,14.00
2024-05-09T19:43:23.698Z,14.97
2024-05-09T19:46:11.272Z,15.30
2024-05-09T19:49:02.235Z,15.90
2024-05-09T19:51:49.856Z,17.40
2024-05-09T19:54:39.610Z,18.60
2024-05-09T19:57:31.578Z,19.83
2024-05-09T20:00:26.286Z,19.30
2024-05-09T20:03:19.423Z,20.63
2024-05-09T20:06:10.023Z,18.20
2024-05-09T20:08:58.385Z,16.97
2024-05-09T20:11:48.616Z,17.80
2024-05-09T20:14:38.615Z,21.17
2024-05-09T20:17:28.943Z,17.23
2024-05-09T20:20:27.396Z,42.17
2024-05-09T20:23:23.147Z,33.23
2024-05-09T20:26:10.966Z,27.20
2024-05-09T20:29:01.064Z,24.57
2024-05-09T20:31:51.199Z,21.17
2024-05-09T20:34:41.426Z,20.00
2024-05-09T20:37:28.531Z,28.23
2024-05-09T20:40:25.612Z,22.07
2024-05-09T20:43:19.478Z,17.60
2024-05-09T20:46:09.645Z,17.17
2024-05-09T20:48:59.534Z,17.50
2024-05-09T20:51:49.704Z,16.63
2024-05-09T20:54:39.514Z,17.60
2024-05-09T20:57:26.918Z,19.57
2024-05-09T21:00:19.333Z,17.57
2024-05-09T21:03:14.885Z,17.73
2024-05-09T21:06:09.501Z,19.50
2024-05-09T21:08:58.432Z,21.57
2024-05-09T21:11:48.395Z,19.87
2024-05-09T21:14:38.938Z,22.50
2024-05-09T21:17:26.664Z,19.03
2024-05-09T21:20:20.662Z,17.80
2024-05-09T21:23:14.444Z,17.63
2024-05-09T21:26:04.407Z,17.83
2024-05-09T21:28:51.908Z,18.60
2024-05-09T21:31:41.789Z,16.63
2024-05-09T21:34:29.934Z,15.50
2024-05-09T21:37:20.046Z,15.50
2024-05-09T21:40:16.985Z,14.80
2024-05-09T21:43:14.593Z,14.37
2024-05-09T21:46:04.685Z,14.47
2024-05-09T21:48:54.728Z,13.13
2024-05-09T21:51:42.048Z,13.20
2024-05-09T21:54:31.927Z,13.70
2024-05-09T21:57:22.400Z,13.60
2024-05-09T22:00:28.151Z,12.67
2024-05-09T22:03:22.661Z,17.70
2024-05-09T22:06:12.915Z,13.40
2024-05-09T22:09:04.978Z,13.90
2024-05-09T22:11:56.584Z,13.27
2024-05-09T22:14:50.430Z,13.10
2024-05-09T22:17:40.663Z,12.80
2024-05-09T22:20:36.834Z,13.13
2024-05-09T22:23:26.719Z,13.30
2024-05-09T22:26:16.606Z,13.33
2024-05-09T22:29:04.284Z,13.83
2024-05-09T22:31:56.768Z,13.37
2024-05-09T22:34:44.556Z,12.90
2024-05-09T22:37:34.322Z,12.80
2024-05-09T22:40:29.497Z,13.07
2024-05-09T22:43:28.688Z,12.60
2024-05-09T22:46:16.103Z,13.07
2024-05-09T22:49:08.648Z,12.93
2024-05-09T22:51:56.326Z,13.07
2024-05-09T22:54:46.019Z,13.57
2024-05-09T22:57:33.537Z,13.30
2024-05-09T23:03:15.848Z,12.23
2024-05-09T23:06:12.495Z,12.90
2024-05-09T23:09:00.236Z,15.90
2024-05-09T23:11:50.275Z,12.60
2024-05-09T23:14:37.881Z,26.40
2024-05-09T23:17:27.829Z,18.93
2024-05-09T23:20:21.706Z,15.80
2024-05-09T23:23:22.047Z,15.30
2024-05-09T23:26:09.708Z,15.30
2024-05-09T23:28:59.635Z,14.03
2024-05-09T23:31:47.423Z,14.17
2024-05-09T23:34:37.655Z,13.37
2024-05-09T23:37:26.067Z,13.13
2024-05-09T23:40:22.864Z,12.37
2024-05-09T23:43:12.299Z,13.33
2024-05-09T23:46:02.638Z,12.60
2024-05-09T23:48:50.341Z,12.83
2024-05-09T23:51:40.190Z,12.47
2024-05-09T23:54:30.378Z,12.70
2024-05-09T23:57:20.188Z,12.30
